Surabaya/Perak, Indonesia

08:15 PM WIB on Pebruari 20, 2017 (GMT +0700)
Juanda | | Change Station

Elev 7 ft 7.37 °S, 112.78 °E | Updated 15 minutes ago

Mendung Sebagian
Mendung Sebagian
81 °F
Feels Like 88 °F
N
5
Angin Variable Angin from Arah Timur

Siang Ini
High -- | Low -- °F
--% Chance of Precip.
Yesterday
High -- | Low -- °F
Precip. -- Inch
Tekanan 29.80 Inch
Jarak Pandang 4.3 Mil
Awan Mendung Tidak Merata 1800 ft
Ideks Panas 88 °F
Titik Embun 79 °F
Kelembaban 94%
Rainfall 0.00 Inch
Snow Depth Not available.
5:33 AM 5:51 PM
Waning Crescent, 34% visible
METAR WARR 201300Z 10004KT 090V160 7000 SCT018CB 27/26 Q1009 NOSIG
Tekanan 29.80 Inch
Jarak Pandang 4.3 Mil
Awan Mendung Tidak Merata 1800 ft
Ideks Panas 88 °F
Titik Embun 79 °F
Kelembaban 94%
Rainfall 0.00 Inch
Snow Depth Not available.
5:33 AM 5:51 PM
Waning Crescent, 34% visible
METAR WARR 201300Z 10004KT 090V160 7000 SCT018CB 27/26 Q1009 NOSIG

Get Your Daily Forecast Email!

Thanks for signing up!

Be on the lookout for a verification email in your inbox.

You'll start receiving the daily forecast at 8 AM.

×

10-Day Weather Forecast

×

Almanac

Astronomi

Feb. 20, 2017 Rise Set
Actual Time
Civil Twilight
Nautical Twilight
Astronomical Twilight
Moon
Length Of Visible Light
Lama Satu Hari
Tomorrow will be .
, % of the Moon is Illuminated

Today's Extremes

Country Highs Country Lows

Community

WunderPhotos

Upload Photos

1,962,540 photos uploaded!

WunderBlog® & News

Nearby

Air Quality

  Air Quality AQ Index Pollutant
Not available.

Snow Depth

Station Depth Elevation

Earthquake Activity

City Distance Mag. Time & Date
Minimum magnitude displayed is 2.5.

Coastal Water Temperatures

Lokasi Temperatur

Stations

Nearby Weather Stations

Station Location Temp Angin Dingin Titik Embun Kelembaban Angin Precip. Elev Telah Diperbaharui Type